createdAt,value
2019-05-05T00:01:46.701Z,99.90
2019-05-05T00:04:28.720Z,99.90
2019-05-05T00:06:58.887Z,99.90
2019-05-05T00:09:29.196Z,99.90
2019-05-05T00:12:20.385Z,99.90
2019-05-05T00:15:55.245Z,99.90
2019-05-05T00:18:27.039Z,99.90
2019-05-05T00:20:57.217Z,99.90
2019-05-05T00:23:27.349Z,99.90
2019-05-05T00:25:57.819Z,99.90
2019-05-05T00:28:27.940Z,99.90
2019-05-05T00:30:58.098Z,99.90
2019-05-05T00:33:28.202Z,99.90
2019-05-05T00:35:58.443Z,99.90
2019-05-05T00:38:28.595Z,99.90
2019-05-05T00:43:28.545Z,99.90
2019-05-05T00:46:04.583Z,99.90
2019-05-05T00:48:37.195Z,99.90
2019-05-05T00:51:07.322Z,99.90
2019-05-05T00:53:37.443Z,99.90
2019-05-05T00:56:07.631Z,99.90
2019-05-05T00:58:39.608Z,99.90
2019-05-05T01:01:14.688Z,99.90
2019-05-05T01:03:44.892Z,99.90
2019-05-05T01:06:18.687Z,99.90
2019-05-05T01:08:48.846Z,99.90
2019-05-05T01:11:19.216Z,99.90
2019-05-05T01:13:49.372Z,99.90
2019-05-05T01:16:19.541Z,99.90
2019-05-05T01:18:49.621Z,99.90
2019-05-05T01:21:19.779Z,99.90
2019-05-05T01:23:49.835Z,99.90
2019-05-05T01:26:19.989Z,99.90
2019-05-05T01:28:50.143Z,99.90
2019-05-05T01:31:20.444Z,99.90
2019-05-05T01:34:11.916Z,99.90
2019-05-05T01:36:42.187Z,99.90
2019-05-05T01:39:21.877Z,99.90
2019-05-05T01:41:55.478Z,99.90
2019-05-05T01:44:25.609Z,99.90
2019-05-05T01:46:55.808Z,99.90
2019-05-05T01:49:25.939Z,99.90
2019-05-05T01:51:56.157Z,99.90
2019-05-05T01:54:26.272Z,99.90
2019-05-05T01:56:56.531Z,99.90
2019-05-05T01:59:27.065Z,99.90
2019-05-05T02:01:57.274Z,99.90
2019-05-05T02:04:27.334Z,99.90
2019-05-05T02:06:57.612Z,99.90
2019-05-05T02:09:27.800Z,99.90
2019-05-05T02:11:58.315Z,99.90
2019-05-05T02:14:28.485Z,99.90
2019-05-05T02:16:58.647Z,99.90
2019-05-05T02:19:28.805Z,99.90
2019-05-05T02:21:58.988Z,99.90
2019-05-05T02:24:29.140Z,99.90
2019-05-05T02:26:59.351Z,99.90
2019-05-05T02:29:36.825Z,99.90
2019-05-05T02:32:19.393Z,99.90
2019-05-05T02:34:56.148Z,99.90
2019-05-05T02:37:25.648Z,99.90
2019-05-05T02:39:58.860Z,99.90
2019-05-05T02:42:25.131Z,99.90
2019-05-05T02:44:55.526Z,99.90
2019-05-05T02:47:34.649Z,99.90
2019-05-05T02:50:05.195Z,99.90
2019-05-05T02:52:34.671Z,99.90
2019-05-05T02:55:04.337Z,99.90
2019-05-05T02:57:34.650Z,99.90
2019-05-05T03:00:10.307Z,99.90
2019-05-05T03:02:40.511Z,99.90
2019-05-05T03:05:10.749Z,99.90
2019-05-05T03:07:41.060Z,99.90
2019-05-05T03:10:11.263Z,99.90
2019-05-05T03:12:43.806Z,99.90
2019-05-05T03:15:14.741Z,99.90
2019-05-05T03:17:45.158Z,99.90
2019-05-05T03:20:15.444Z,99.90
2019-05-05T03:22:45.767Z,99.90
2019-05-05T03:27:45.537Z,99.90
2019-05-05T03:30:16.200Z,99.90
2019-05-05T03:32:46.436Z,99.90
2019-05-05T03:35:16.605Z,99.90
2019-05-05T03:37:47.307Z,99.90
2019-05-05T03:40:23.757Z,99.90
2019-05-05T03:42:56.109Z,99.90
2019-05-05T03:45:34.235Z,99.90
2019-05-05T03:48:04.689Z,99.90
2019-05-05T03:50:34.573Z,99.90
2019-05-05T03:53:05.012Z,99.90
2019-05-05T03:55:35.219Z,99.90
2019-05-05T03:58:05.417Z,99.90
2019-05-05T04:01:54.960Z,99.90
2019-05-05T04:04:26.210Z,99.90
2019-05-05T04:06:57.036Z,99.90
2019-05-05T04:09:27.330Z,99.90
2019-05-05T04:11:57.543Z,99.90
2019-05-05T04:14:27.725Z,99.90
2019-05-05T04:18:03.993Z,99.90
2019-05-05T04:20:44.177Z,99.90
2019-05-05T04:23:14.119Z,99.90
2019-05-05T04:25:44.025Z,99.90
2019-05-05T04:28:13.776Z,99.90
2019-05-05T04:30:44.446Z,99.90
2019-05-05T04:33:14.417Z,99.90
2019-05-05T04:35:44.599Z,99.90
2019-05-05T04:38:14.925Z,99.90
2019-05-05T04:40:45.034Z,99.90
2019-05-05T04:43:15.190Z,99.90
2019-05-05T04:45:45.350Z,99.90
2019-05-05T04:48:20.107Z,99.90
2019-05-05T04:51:29.041Z,99.90
2019-05-05T04:54:04.342Z,99.90
2019-05-05T04:56:34.659Z,99.90
2019-05-05T04:59:04.895Z,99.90
2019-05-05T05:01:35.178Z,99.90
2019-05-05T05:04:10.360Z,99.90
2019-05-05T05:06:44.888Z,99.90
2019-05-05T05:09:15.042Z,99.90
2019-05-05T05:11:45.151Z,99.90
2019-05-05T05:14:15.292Z,99.90
2019-05-05T05:19:14.964Z,99.90
2019-05-05T05:21:58.025Z,99.90
2019-05-05T05:24:15.685Z,99.90
2019-05-05T05:26:45.945Z,99.90
2019-05-05T05:29:16.142Z,99.90
2019-05-05T05:31:46.277Z,99.90
2019-05-05T05:34:16.451Z,99.90
2019-05-05T05:36:46.709Z,99.90
2019-05-05T05:39:21.952Z,99.90
2019-05-05T05:41:53.968Z,99.90
2019-05-05T05:44:28.165Z,99.90
2019-05-05T05:47:03.485Z,99.90
2019-05-05T05:49:36.726Z,99.90
2019-05-05T05:54:36.380Z,99.90
2019-05-05T05:57:06.557Z,99.90
2019-05-05T05:59:36.725Z,99.90
2019-05-05T06:02:12.226Z,99.90
2019-05-05T06:04:37.491Z,99.90
2019-05-05T06:07:07.612Z,99.90
2019-05-05T06:09:37.801Z,99.90
2019-05-05T06:12:08.127Z,99.90
2019-05-05T06:14:38.543Z,99.90
2019-05-05T06:17:08.688Z,99.90
2019-05-05T06:19:38.827Z,99.90
2019-05-05T06:22:08.939Z,99.90
2019-05-05T06:24:39.413Z,99.90
2019-05-05T06:29:40.738Z,99.90
2019-05-05T06:32:10.868Z,99.90
2019-05-05T06:34:41.004Z,99.90
2019-05-05T06:37:11.120Z,99.90
2019-05-05T06:39:41.328Z,99.90
2019-05-05T06:42:23.668Z,99.90
2019-05-05T06:44:57.489Z,99.90
2019-05-05T06:47:31.685Z,99.90
2019-05-05T06:50:03.574Z,99.90
2019-05-05T06:52:43.822Z,99.90
2019-05-05T06:55:03.728Z,99.90
2019-05-05T06:57:34.300Z,99.90
2019-05-05T07:00:03.634Z,99.90
2019-05-05T07:02:34.264Z,99.90
2019-05-05T07:05:04.138Z,99.90
2019-05-05T07:07:34.393Z,99.90
2019-05-05T07:10:04.196Z,99.90
2019-05-05T07:12:34.806Z,99.90
2019-05-05T07:15:04.855Z,99.90
2019-05-05T07:17:34.994Z,99.90
2019-05-05T07:20:05.854Z,99.90
2019-05-05T07:22:36.007Z,99.90
2019-05-05T07:25:06.336Z,99.90
2019-05-05T07:27:36.464Z,99.90
2019-05-05T07:32:36.205Z,99.90
2019-05-05T07:35:14.702Z,99.90
2019-05-05T07:37:44.847Z,99.90
2019-05-05T07:40:15.126Z,99.90
2019-05-05T07:42:45.251Z,99.90
2019-05-05T07:45:22.489Z,99.90
2019-05-05T07:47:47.381Z,99.90
2019-05-05T07:50:28.979Z,99.90
2019-05-05T07:52:46.230Z,99.90
2019-05-05T07:55:16.451Z,99.90
2019-05-05T07:57:46.562Z,99.90
2019-05-05T08:00:16.959Z,99.90
2019-05-05T08:02:47.089Z,99.90
2019-05-05T08:05:17.290Z,99.90
2019-05-05T08:07:47.415Z,99.90
2019-05-05T08:10:17.600Z,99.90
2019-05-05T08:12:47.723Z,99.90
2019-05-05T08:15:18.349Z,99.90
2019-05-05T08:17:53.992Z,99.90
2019-05-05T08:20:27.622Z,99.90
2019-05-05T08:22:57.848Z,99.90
2019-05-05T08:25:46.658Z,99.90
2019-05-05T08:28:24.186Z,99.90
2019-05-05T08:33:30.946Z,99.90
2019-05-05T08:36:01.093Z,99.90
2019-05-05T08:38:31.141Z,99.90
2019-05-05T08:41:01.225Z,99.90
2019-05-05T08:43:31.345Z,99.90
2019-05-05T08:46:01.499Z,99.90
2019-05-05T08:48:31.613Z,99.90
2019-05-05T08:51:01.930Z,99.90
2019-05-05T08:53:42.494Z,99.90
2019-05-05T08:56:04.092Z,99.90
2019-05-05T08:58:34.410Z,99.90
2019-05-05T09:01:04.358Z,99.90
2019-05-05T09:03:33.768Z,99.90
2019-05-05T09:08:34.740Z,99.90
2019-05-05T09:11:04.930Z,99.90
2019-05-05T09:13:34.718Z,99.90
2019-05-05T09:16:05.463Z,99.90
2019-05-05T09:18:37.411Z,99.90
2019-05-05T09:21:07.570Z,99.90
2019-05-05T09:23:37.995Z,99.90
2019-05-05T09:26:27.672Z,99.90
2019-05-05T09:29:04.373Z,99.90
2019-05-05T09:31:34.392Z,99.90
2019-05-05T09:36:34.857Z,99.90
2019-05-05T09:39:04.432Z,99.90
2019-05-05T09:41:34.840Z,99.90
2019-05-05T09:44:05.446Z,99.90
2019-05-05T09:46:36.007Z,99.90
2019-05-05T09:49:06.647Z,99.90
2019-05-05T09:51:37.191Z,99.90
2019-05-05T09:54:14.147Z,99.90
2019-05-05T09:56:38.114Z,99.90
2019-05-05T09:59:08.619Z,99.90
2019-05-05T10:01:39.123Z,99.90
2019-05-05T10:04:09.995Z,99.90
2019-05-05T10:06:40.684Z,99.90
2019-05-05T10:09:13.615Z,99.90
2019-05-05T10:11:41.864Z,99.90
2019-05-05T10:14:14.195Z,99.90
2019-05-05T10:19:13.943Z,99.90
2019-05-05T10:21:44.363Z,99.90
2019-05-05T10:24:28.559Z,99.90
2019-05-05T10:26:54.310Z,99.90
2019-05-05T10:31:57.210Z,99.90
2019-05-05T10:34:27.523Z,99.90
2019-05-05T10:36:58.056Z,99.90
2019-05-05T10:39:33.486Z,99.90
2019-05-05T10:42:04.046Z,99.90
2019-05-05T10:44:34.032Z,99.90
2019-05-05T10:47:04.625Z,99.90
2019-05-05T10:52:04.022Z,99.90
2019-05-05T10:54:44.245Z,99.90
2019-05-05T10:57:04.736Z,99.90
2019-05-05T10:59:35.347Z,99.90
2019-05-05T11:02:05.817Z,99.90
2019-05-05T11:04:44.239Z,99.90
2019-05-05T11:07:14.602Z,99.90
2019-05-05T11:09:44.791Z,99.90
2019-05-05T11:12:15.393Z,99.90
2019-05-05T11:14:45.938Z,99.90
2019-05-05T11:17:16.442Z,99.90
2019-05-05T11:22:41.311Z,99.90
2019-05-05T11:25:13.913Z,99.90
2019-05-05T11:27:43.999Z,99.90
2019-05-05T11:30:17.021Z,99.90
2019-05-05T11:32:52.383Z,99.90
2019-05-05T11:35:24.423Z,99.90
2019-05-05T11:37:54.270Z,99.90
2019-05-05T11:40:27.964Z,99.90
2019-05-05T11:42:58.501Z,99.90
2019-05-05T11:45:29.032Z,99.90
2019-05-05T11:48:00.192Z,99.90
2019-05-05T11:50:30.340Z,99.90
2019-05-05T11:53:00.518Z,99.90
2019-05-05T11:55:30.589Z,99.90
2019-05-05T11:58:00.756Z,99.90
2019-05-05T12:00:31.881Z,99.90
2019-05-05T12:03:03.810Z,99.90
2019-05-05T12:05:33.675Z,99.90
2019-05-05T12:08:03.954Z,99.90
2019-05-05T12:10:43.911Z,99.90
2019-05-05T12:13:14.750Z,99.90
2019-05-05T12:15:44.631Z,99.90
2019-05-05T12:18:14.486Z,99.90
2019-05-05T12:20:44.523Z,99.90
2019-05-05T12:23:14.840Z,99.90
2019-05-05T12:26:51.110Z,99.90
2019-05-05T12:29:25.222Z,99.90
2019-05-05T12:31:55.660Z,99.90
2019-05-05T12:34:26.235Z,99.90
2019-05-05T12:39:27.043Z,99.90
2019-05-05T12:41:57.445Z,99.90
2019-05-05T12:44:34.708Z,99.90
2019-05-05T12:49:39.778Z,99.90
2019-05-05T12:52:10.288Z,99.90
2019-05-05T12:54:40.768Z,99.90
2019-05-05T12:57:13.556Z,99.90
2019-05-05T12:59:41.928Z,99.90
2019-05-05T13:02:14.267Z,99.90
2019-05-05T13:07:13.652Z,99.90
2019-05-05T13:09:44.086Z,99.90
2019-05-05T13:12:15.055Z,99.90
2019-05-05T13:17:15.084Z,99.90
2019-05-05T13:19:50.447Z,99.90
2019-05-05T13:22:26.753Z,99.90
2019-05-05T13:25:04.603Z,99.90
2019-05-05T13:27:36.982Z,99.90
2019-05-05T13:30:07.951Z,99.90
2019-05-05T13:32:38.504Z,99.90
2019-05-05T13:35:09.131Z,99.90
2019-05-05T13:37:39.324Z,99.90
2019-05-05T13:40:09.939Z,99.90
2019-05-05T13:42:40.489Z,99.90
2019-05-05T13:45:34.298Z,99.90
2019-05-05T13:50:36.020Z,99.90
2019-05-05T13:53:06.516Z,99.90
2019-05-05T13:55:36.966Z,99.90
2019-05-05T13:58:08.917Z,99.90
2019-05-05T14:00:37.818Z,99.90
2019-05-05T14:03:08.228Z,99.90
2019-05-05T14:08:08.563Z,99.90
2019-05-05T14:10:39.012Z,99.90
2019-05-05T14:13:10.555Z,99.90
2019-05-05T14:15:39.900Z,99.90
2019-05-05T14:18:10.404Z,99.90
2019-05-05T14:20:40.929Z,99.90
2019-05-05T14:23:11.263Z,99.90
2019-05-05T14:25:43.955Z,99.90
2019-05-05T14:28:14.018Z,99.90
2019-05-05T14:30:50.820Z,99.90
2019-05-05T14:33:23.790Z,99.90
2019-05-05T14:35:59.295Z,99.90
2019-05-05T14:38:36.623Z,99.90
2019-05-05T14:41:07.352Z,99.90
2019-05-05T14:46:07.487Z,99.90
2019-05-05T14:48:38.031Z,99.90
2019-05-05T14:51:08.724Z,99.90
2019-05-05T14:53:39.208Z,99.90
2019-05-05T14:56:09.647Z,99.90
2019-05-05T14:58:40.130Z,99.90
2019-05-05T15:01:10.651Z,99.90
2019-05-05T15:03:40.905Z,99.90
2019-05-05T15:06:18.017Z,99.90
2019-05-05T15:08:51.184Z,99.90
2019-05-05T15:11:33.759Z,99.90
2019-05-05T15:14:04.385Z,99.90
2019-05-05T15:16:34.569Z,99.90
2019-05-05T15:19:03.856Z,99.90
2019-05-05T15:21:33.991Z,99.90
2019-05-05T15:24:03.855Z,99.90
2019-05-05T15:26:34.479Z,99.90
2019-05-05T15:29:04.808Z,99.90
2019-05-05T15:31:35.179Z,99.90
2019-05-05T15:34:05.911Z,99.90
2019-05-05T15:36:36.454Z,99.90
2019-05-05T15:39:08.831Z,99.90
2019-05-05T15:41:41.603Z,99.90
2019-05-05T15:44:09.645Z,99.90
2019-05-05T15:46:40.182Z,99.90
2019-05-05T15:49:10.588Z,99.90
2019-05-05T15:51:44.185Z,99.90
2019-05-05T15:54:14.079Z,99.90
2019-05-05T15:56:43.117Z,99.90
2019-05-05T15:59:14.328Z,99.90
2019-05-05T16:01:44.268Z,99.90
2019-05-05T16:04:14.709Z,99.90
2019-05-05T16:06:45.897Z,99.90
2019-05-05T16:09:16.079Z,99.90
2019-05-05T16:11:46.830Z,99.90
2019-05-05T16:14:16.910Z,99.90
2019-05-05T16:16:57.271Z,99.90
2019-05-05T16:19:36.528Z,99.90
2019-05-05T16:22:14.572Z,99.90
2019-05-05T16:24:44.746Z,99.90
2019-05-05T16:27:21.692Z,99.90
2019-05-05T16:29:46.565Z,99.90
2019-05-05T16:32:21.788Z,99.90
2019-05-05T16:34:47.472Z,99.90
2019-05-05T16:37:17.988Z,99.90
2019-05-05T16:39:48.321Z,99.90
2019-05-05T16:42:18.768Z,99.90
2019-05-05T16:44:49.255Z,99.90
2019-05-05T16:47:19.591Z,99.70
2019-05-05T16:49:50.095Z,99.90
2019-05-05T16:52:24.590Z,99.90
2019-05-05T16:54:59.928Z,99.90
2019-05-05T16:57:33.931Z,99.00
2019-05-05T17:00:00.930Z,99.80
2019-05-05T17:02:33.273Z,98.90
2019-05-05T17:05:02.105Z,98.40
2019-05-05T17:07:34.337Z,98.50
2019-05-05T17:10:05.997Z,98.80
2019-05-05T17:12:33.935Z,98.70
2019-05-05T17:16:09.037Z,99.50
2019-05-05T17:18:46.518Z,99.90
2019-05-05T17:21:22.586Z,99.90
2019-05-05T17:23:53.994Z,99.90
2019-05-05T17:26:24.335Z,99.90
2019-05-05T17:28:54.226Z,99.90
2019-05-05T17:31:24.698Z,99.90
2019-05-05T17:33:54.960Z,99.90
2019-05-05T17:36:25.455Z,99.90
2019-05-05T17:38:55.721Z,99.90
2019-05-05T17:41:30.739Z,99.90
2019-05-05T17:46:44.187Z,99.90
2019-05-05T17:49:26.870Z,99.90
2019-05-05T17:52:14.317Z,99.90
2019-05-05T17:54:46.325Z,99.90
2019-05-05T17:59:46.100Z,99.90
2019-05-05T18:02:17.184Z,99.90
2019-05-05T18:04:47.887Z,99.90
2019-05-05T18:07:30.167Z,99.90
2019-05-05T18:10:06.433Z,99.90
2019-05-05T18:13:14.310Z,99.90
2019-05-05T18:15:49.643Z,99.90
2019-05-05T18:18:19.960Z,99.90
2019-05-05T18:20:50.702Z,99.90
2019-05-05T18:23:23.297Z,99.90
2019-05-05T18:25:51.998Z,99.90
2019-05-05T18:28:24.557Z,99.90
2019-05-05T18:30:53.941Z,99.90
2019-05-05T18:33:24.684Z,99.90
2019-05-05T18:35:54.251Z,99.90
2019-05-05T18:38:24.641Z,99.90
2019-05-05T18:40:55.327Z,99.90
2019-05-05T18:43:30.972Z,99.90
2019-05-05T18:46:04.387Z,99.90
2019-05-05T18:48:34.563Z,99.90
2019-05-05T18:51:03.945Z,99.90
2019-05-05T18:53:34.310Z,99.90
2019-05-05T18:56:04.785Z,99.90
2019-05-05T18:58:35.121Z,99.90
2019-05-05T19:01:21.332Z,99.90
2019-05-05T19:03:56.732Z,99.90
2019-05-05T19:06:34.374Z,99.90
2019-05-05T19:09:04.528Z,99.90
2019-05-05T19:11:34.099Z,99.90
2019-05-05T19:14:03.647Z,99.90
2019-05-05T19:16:34.630Z,99.90
2019-05-05T19:19:04.116Z,99.90
2019-05-05T19:21:37.349Z,99.90
2019-05-05T19:24:07.748Z,99.90
2019-05-05T19:26:38.249Z,99.90
2019-05-05T19:29:08.700Z,99.90
2019-05-05T19:31:39.132Z,99.90
2019-05-05T19:34:09.777Z,99.90
2019-05-05T19:36:40.219Z,99.90
2019-05-05T19:39:10.819Z,99.90
2019-05-05T19:41:41.388Z,99.90
2019-05-05T19:44:11.964Z,99.90
2019-05-05T19:46:50.071Z,99.90
2019-05-05T19:49:20.948Z,99.90
2019-05-05T19:51:53.950Z,99.90
2019-05-05T19:56:54.069Z,99.90
2019-05-05T19:59:22.765Z,99.90
2019-05-05T20:01:54.014Z,99.90
2019-05-05T20:04:24.143Z,99.90
2019-05-05T20:06:54.785Z,99.90
2019-05-05T20:09:24.727Z,99.90
2019-05-05T20:11:54.874Z,99.90
2019-05-05T20:14:25.189Z,99.90
2019-05-05T20:17:06.786Z,99.90
2019-05-05T20:19:43.743Z,99.90
2019-05-05T20:22:14.378Z,99.90
2019-05-05T20:24:44.354Z,99.90
2019-05-05T20:27:14.082Z,99.90
2019-05-05T20:29:44.417Z,99.90
2019-05-05T20:32:15.375Z,99.90
2019-05-05T20:34:51.024Z,99.90
2019-05-05T20:37:24.427Z,99.90
2019-05-05T20:39:55.087Z,99.90
2019-05-05T20:42:25.596Z,99.90
2019-05-05T20:44:56.008Z,99.90
2019-05-05T20:47:26.665Z,99.90
2019-05-05T20:49:57.065Z,99.90
2019-05-05T20:52:27.364Z,99.90
2019-05-05T20:54:57.714Z,99.90
2019-05-05T20:57:28.368Z,99.90
2019-05-05T20:59:58.792Z,99.90
2019-05-05T21:02:29.658Z,99.90
2019-05-05T21:05:00.016Z,99.90
2019-05-05T21:07:30.472Z,99.90
2019-05-05T21:10:00.995Z,99.90
2019-05-05T21:12:41.726Z,99.90
2019-05-05T21:15:01.874Z,99.90
2019-05-05T21:17:33.774Z,99.90
2019-05-05T21:20:04.349Z,99.90
2019-05-05T21:22:38.345Z,99.90
2019-05-05T21:25:14.270Z,99.90
2019-05-05T21:27:43.702Z,99.90
2019-05-05T21:30:14.315Z,99.90
2019-05-05T21:32:44.659Z,99.90
2019-05-05T21:35:15.219Z,99.90
2019-05-05T21:37:45.879Z,99.90
2019-05-05T21:40:16.584Z,99.90
2019-05-05T21:42:47.218Z,99.90
2019-05-05T21:45:17.683Z,99.90
2019-05-05T21:47:48.146Z,99.90
2019-05-05T21:50:21.377Z,99.90
2019-05-05T21:52:57.348Z,99.90
2019-05-05T21:55:33.899Z,99.90
2019-05-05T21:58:06.703Z,99.90
2019-05-05T22:00:44.126Z,99.90
2019-05-05T22:03:14.020Z,99.90
2019-05-05T22:05:43.412Z,99.90
2019-05-05T22:08:14.311Z,99.90
2019-05-05T22:10:44.407Z,99.90
2019-05-05T22:13:15.076Z,99.90
2019-05-05T22:15:45.540Z,99.90
2019-05-05T22:18:15.868Z,99.90
2019-05-05T22:20:50.512Z,99.90
2019-05-05T22:23:21.055Z,99.90
2019-05-05T22:25:51.468Z,99.90
2019-05-05T22:28:21.995Z,99.90
2019-05-05T22:30:55.345Z,99.90
2019-05-05T22:33:24.673Z,99.90
2019-05-05T22:35:54.871Z,99.90
2019-05-05T22:40:54.542Z,99.90
2019-05-05T22:43:24.452Z,99.90
2019-05-05T22:45:56.134Z,99.90
2019-05-05T22:48:25.476Z,99.90
2019-05-05T22:50:56.021Z,99.90
2019-05-05T22:53:26.479Z,99.90
2019-05-05T22:55:57.012Z,99.90
2019-05-05T22:58:27.465Z,99.90
2019-05-05T23:00:57.959Z,99.90
2019-05-05T23:03:32.624Z,99.90
2019-05-05T23:06:07.160Z,99.90
2019-05-05T23:08:37.631Z,99.90
2019-05-05T23:11:07.847Z,99.90
2019-05-05T23:13:37.996Z,99.90
2019-05-05T23:16:19.997Z,99.90
2019-05-05T23:18:50.526Z,99.90
2019-05-05T23:21:24.856Z,99.90
2019-05-05T23:26:31.286Z,99.90
2019-05-05T23:29:01.417Z,99.90
2019-05-05T23:31:33.567Z,99.90
2019-05-05T23:34:03.958Z,99.90
2019-05-05T23:36:33.941Z,99.90
2019-05-05T23:39:03.998Z,99.90
2019-05-05T23:41:34.892Z,99.90
2019-05-05T23:44:04.538Z,99.90
2019-05-05T23:46:34.983Z,99.90
2019-05-05T23:49:05.656Z,99.90
2019-05-05T23:51:36.264Z,99.90
2019-05-05T23:54:06.363Z,99.90
2019-05-05T23:56:36.822Z,99.90
2019-05-05T23:59:07.047Z,99.90
